sensor_id;sensor_type;location;lat;lon;timestamp;P1;P2;P0
26720;PMS1003;15950;51.112;6.966;2023-04-03T00:00:10;003;002;
26720;PMS1003;15950;51.112;6.966;2023-04-03T00:03:10;007;006;
26720;PMS1003;15950;51.112;6.966;2023-04-03T00:06:10;003;002;
26720;PMS1003;15950;51.112;6.966;2023-04-03T00:09:10;006;004;
26720;PMS1003;15950;51.112;6.966;2023-04-03T00:12:10;007;006;
26720;PMS1003;15950;51.112;6.966;2023-04-03T00:15:10;006;005;
26720;PMS1003;15950;51.112;6.966;2023-04-03T00:18:10;005;004;
26720;PMS1003;15950;51.112;6.966;2023-04-03T00:21:12;007;005;
26720;PMS1003;15950;51.112;6.966;2023-04-03T00:24:10;005;003;
26720;PMS1003;15950;51.112;6.966;2023-04-03T00:27:10;007;006;
26720;PMS1003;15950;51.112;6.966;2023-04-03T00:30:13;006;004;
26720;PMS1003;15950;51.112;6.966;2023-04-03T00:33:11;004;003;
26720;PMS1003;15950;51.112;6.966;2023-04-03T00:36:10;002;001;
26720;PMS1003;15950;51.112;6.966;2023-04-03T00:39:10;005;003;
26720;PMS1003;15950;51.112;6.966;2023-04-03T00:42:10;003;002;
26720;PMS1003;15950;51.112;6.966;2023-04-03T00:48:12;005;003;
26720;PMS1003;15950;51.112;6.966;2023-04-03T00:51:14;004;003;
26720;PMS1003;15950;51.112;6.966;2023-04-03T00:54:10;003;002;
26720;PMS1003;15950;51.112;6.966;2023-04-03T00:57:10;006;004;
26720;PMS1003;15950;51.112;6.966;2023-04-03T01:00:11;005;003;
26720;PMS1003;15950;51.112;6.966;2023-04-03T01:03:10;005;004;
26720;PMS1003;15950;51.112;6.966;2023-04-03T01:06:10;007;005;
26720;PMS1003;15950;51.112;6.966;2023-04-03T01:09:10;007;005;
26720;PMS1003;15950;51.112;6.966;2023-04-03T01:15:14;002;001;
26720;PMS1003;15950;51.112;6.966;2023-04-03T01:18:10;006;006;
26720;PMS1003;15950;51.112;6.966;2023-04-03T01:27:10;003;002;
26720;PMS1003;15950;51.112;6.966;2023-04-03T01:30:10;004;003;
26720;PMS1003;15950;51.112;6.966;2023-04-03T01:33:10;003;002;
26720;PMS1003;15950;51.112;6.966;2023-04-03T01:36:15;006;004;
26720;PMS1003;15950;51.112;6.966;2023-04-03T01:39:10;003;002;
26720;PMS1003;15950;51.112;6.966;2023-04-03T01:42:10;002;002;
26720;PMS1003;15950;51.112;6.966;2023-04-03T01:45:10;000;000;
26720;PMS1003;15950;51.112;6.966;2023-04-03T01:48:10;005;003;
26720;PMS1003;15950;51.112;6.966;2023-04-03T01:51:10;006;004;
26720;PMS1003;15950;51.112;6.966;2023-04-03T01:54:10;006;006;
26720;PMS1003;15950;51.112;6.966;2023-04-03T01:57:10;004;004;
26720;PMS1003;15950;51.112;6.966;2023-04-03T02:00:10;003;002;
26720;PMS1003;15950;51.112;6.966;2023-04-03T02:03:10;002;001;
26720;PMS1003;15950;51.112;6.966;2023-04-03T02:06:10;007;005;
26720;PMS1003;15950;51.112;6.966;2023-04-03T02:09:10;003;002;
26720;PMS1003;15950;51.112;6.966;2023-04-03T02:12:10;005;003;
26720;PMS1003;15950;51.112;6.966;2023-04-03T02:15:10;004;003;
26720;PMS1003;15950;51.112;6.966;2023-04-03T02:18:10;004;003;
26720;PMS1003;15950;51.112;6.966;2023-04-03T02:21:10;006;004;
26720;PMS1003;15950;51.112;6.966;2023-04-03T02:24:10;004;003;
26720;PMS1003;15950;51.112;6.966;2023-04-03T02:27:10;006;004;
26720;PMS1003;15950;51.112;6.966;2023-04-03T02:30:10;002;001;
26720;PMS1003;15950;51.112;6.966;2023-04-03T02:33:10;006;004;
26720;PMS1003;15950;51.112;6.966;2023-04-03T02:36:10;006;004;
26720;PMS1003;15950;51.112;6.966;2023-04-03T02:39:10;005;003;
26720;PMS1003;15950;51.112;6.966;2023-04-03T02:42:10;003;002;
26720;PMS1003;15950;51.112;6.966;2023-04-03T02:45:10;002;002;
26720;PMS1003;15950;51.112;6.966;2023-04-03T02:48:10;003;002;
26720;PMS1003;15950;51.112;6.966;2023-04-03T02:51:10;004;003;
26720;PMS1003;15950;51.112;6.966;2023-04-03T02:54:10;003;002;
26720;PMS1003;15950;51.112;6.966;2023-04-03T02:57:10;003;003;
26720;PMS1003;15950;51.112;6.966;2023-04-03T03:00:10;002;001;
26720;PMS1003;15950;51.112;6.966;2023-04-03T03:03:10;002;002;
26720;PMS1003;15950;51.112;6.966;2023-04-03T03:06:11;005;003;
26720;PMS1003;15950;51.112;6.966;2023-04-03T03:09:10;002;001;
26720;PMS1003;15950;51.112;6.966;2023-04-03T03:12:10;002;001;
26720;PMS1003;15950;51.112;6.966;2023-04-03T03:15:10;003;002;
26720;PMS1003;15950;51.112;6.966;2023-04-03T03:18:10;002;001;
26720;PMS1003;15950;51.112;6.966;2023-04-03T03:21:10;003;002;
26720;PMS1003;15950;51.112;6.966;2023-04-03T03:24:10;002;001;
26720;PMS1003;15950;51.112;6.966;2023-04-03T03:27:10;000;000;
26720;PMS1003;15950;51.112;6.966;2023-04-03T03:30:10;002;001;
26720;PMS1003;15950;51.112;6.966;2023-04-03T03:33:10;002;001;
26720;PMS1003;15950;51.112;6.966;2023-04-03T03:36:10;002;002;
26720;PMS1003;15950;51.112;6.966;2023-04-03T03:39:10;003;002;
26720;PMS1003;15950;51.112;6.966;2023-04-03T03:42:10;003;002;
26720;PMS1003;15950;51.112;6.966;2023-04-03T03:45:10;005;003;
26720;PMS1003;15950;51.112;6.966;2023-04-03T03:48:10;000;000;
26720;PMS1003;15950;51.112;6.966;2023-04-03T03:51:10;000;000;
26720;PMS1003;15950;51.112;6.966;2023-04-03T03:54:10;002;002;
26720;PMS1003;15950;51.112;6.966;2023-04-03T03:57:10;002;001;
26720;PMS1003;15950;51.112;6.966;2023-04-03T04:00:10;000;000;
26720;PMS1003;15950;51.112;6.966;2023-04-03T04:03:10;000;000;
26720;PMS1003;15950;51.112;6.966;2023-04-03T04:06:10;003;002;
26720;PMS1003;15950;51.112;6.966;2023-04-03T04:09:10;001;001;
26720;PMS1003;15950;51.112;6.966;2023-04-03T04:12:10;003;002;
26720;PMS1003;15950;51.112;6.966;2023-04-03T04:15:10;000;000;
26720;PMS1003;15950;51.112;6.966;2023-04-03T04:18:10;000;000;
26720;PMS1003;15950;51.112;6.966;2023-04-03T04:21:10;000;000;
26720;PMS1003;15950;51.112;6.966;2023-04-03T04:24:10;000;000;
26720;PMS1003;15950;51.112;6.966;2023-04-03T04:27:10;000;000;
26720;PMS1003;15950;51.112;6.966;2023-04-03T04:30:10;000;000;
26720;PMS1003;15950;51.112;6.966;2023-04-03T04:33:10;000;000;
26720;PMS1003;15950;51.112;6.966;2023-04-03T04:36:10;000;000;
26720;PMS1003;15950;51.112;6.966;2023-04-03T04:39:10;000;000;
26720;PMS1003;15950;51.112;6.966;2023-04-03T04:42:10;000;000;
26720;PMS1003;15950;51.112;6.966;2023-04-03T04:45:10;000;000;
26720;PMS1003;15950;51.112;6.966;2023-04-03T04:48:10;000;000;
26720;PMS1003;15950;51.112;6.966;2023-04-03T04:51:10;000;000;
26720;PMS1003;15950;51.112;6.966;2023-04-03T04:54:10;000;000;
26720;PMS1003;15950;51.112;6.966;2023-04-03T04:57:10;001;001;
26720;PMS1003;15950;51.112;6.966;2023-04-03T05:00:10;000;000;
26720;PMS1003;15950;51.112;6.966;2023-04-03T05:03:10;000;000;
26720;PMS1003;15950;51.112;6.966;2023-04-03T05:06:10;003;002;
26720;PMS1003;15950;51.112;6.966;2023-04-03T05:09:10;004;003;
26720;PMS1003;15950;51.112;6.966;2023-04-03T05:12:10;000;000;
26720;PMS1003;15950;51.112;6.966;2023-04-03T05:15:10;000;000;
26720;PMS1003;15950;51.112;6.966;2023-04-03T05:18:10;000;000;
26720;PMS1003;15950;51.112;6.966;2023-04-03T05:21:10;000;000;
26720;PMS1003;15950;51.112;6.966;2023-04-03T05:24:10;000;000;
26720;PMS1003;15950;51.112;6.966;2023-04-03T05:27:10;000;000;
26720;PMS1003;15950;51.112;6.966;2023-04-03T05:30:10;000;000;
26720;PMS1003;15950;51.112;6.966;2023-04-03T05:33:10;002;002;
26720;PMS1003;15950;51.112;6.966;2023-04-03T05:36:10;000;000;
26720;PMS1003;15950;51.112;6.966;2023-04-03T05:39:10;000;000;
26720;PMS1003;15950;51.112;6.966;2023-04-03T05:42:10;000;000;
26720;PMS1003;15950;51.112;6.966;2023-04-03T05:45:10;000;000;
26720;PMS1003;15950;51.112;6.966;2023-04-03T05:48:10;000;000;
26720;PMS1003;15950;51.112;6.966;2023-04-03T05:51:14;000;000;
26720;PMS1003;15950;51.112;6.966;2023-04-03T05:57:10;000;000;
26720;PMS1003;15950;51.112;6.966;2023-04-03T06:00:12;000;000;
26720;PMS1003;15950;51.112;6.966;2023-04-03T06:03:10;006;004;
26720;PMS1003;15950;51.112;6.966;2023-04-03T06:06:12;002;001;
26720;PMS1003;15950;51.112;6.966;2023-04-03T06:09:10;000;000;
26720;PMS1003;15950;51.112;6.966;2023-04-03T06:12:10;000;000;
26720;PMS1003;15950;51.112;6.966;2023-04-03T06:15:10;000;000;
26720;PMS1003;15950;51.112;6.966;2023-04-03T06:18:10;001;001;
26720;PMS1003;15950;51.112;6.966;2023-04-03T06:21:10;000;000;
26720;PMS1003;15950;51.112;6.966;2023-04-03T06:24:11;000;000;
26720;PMS1003;15950;51.112;6.966;2023-04-03T06:27:10;000;000;
26720;PMS1003;15950;51.112;6.966;2023-04-03T06:30:10;000;000;
26720;PMS1003;15950;51.112;6.966;2023-04-03T06:33:10;000;000;
26720;PMS1003;15950;51.112;6.966;2023-04-03T06:36:10;000;000;
26720;PMS1003;15950;51.112;6.966;2023-04-03T06:39:13;000;000;
26720;PMS1003;15950;51.112;6.966;2023-04-03T06:42:10;000;000;
26720;PMS1003;15950;51.112;6.966;2023-04-03T06:45:10;000;000;
26720;PMS1003;15950;51.112;6.966;2023-04-03T06:48:10;000;000;
26720;PMS1003;15950;51.112;6.966;2023-04-03T06:51:31;000;000;
26720;PMS1003;15950;51.112;6.966;2023-04-03T06:54:10;000;000;
26720;PMS1003;15950;51.112;6.966;2023-04-03T06:57:10;002;001;
26720;PMS1003;15950;51.112;6.966;2023-04-03T07:00:10;000;000;
26720;PMS1003;15950;51.112;6.966;2023-04-03T07:03:10;000;000;
26720;PMS1003;15950;51.112;6.966;2023-04-03T07:06:11;000;000;
26720;PMS1003;15950;51.112;6.966;2023-04-03T07:09:10;001;001;
26720;PMS1003;15950;51.112;6.966;2023-04-03T07:12:10;000;000;
26720;PMS1003;15950;51.112;6.966;2023-04-03T07:15:10;000;000;
26720;PMS1003;15950;51.112;6.966;2023-04-03T07:18:10;000;000;
26720;PMS1003;15950;51.112;6.966;2023-04-03T07:21:10;000;000;
26720;PMS1003;15950;51.112;6.966;2023-04-03T07:24:10;000;000;
26720;PMS1003;15950;51.112;6.966;2023-04-03T07:27:10;000;000;
26720;PMS1003;15950;51.112;6.966;2023-04-03T07:30:10;000;000;
26720;PMS1003;15950;51.112;6.966;2023-04-03T07:33:10;000;000;
26720;PMS1003;15950;51.112;6.966;2023-04-03T07:36:10;000;000;
26720;PMS1003;15950;51.112;6.966;2023-04-03T07:39:10;000;000;
26720;PMS1003;15950;51.112;6.966;2023-04-03T07:42:10;000;000;
26720;PMS1003;15950;51.112;6.966;2023-04-03T07:45:10;000;000;
26720;PMS1003;15950;51.112;6.966;2023-04-03T07:48:10;000;000;
26720;PMS1003;15950;51.112;6.966;2023-04-03T07:51:10;000;000;
26720;PMS1003;15950;51.112;6.966;2023-04-03T07:54:10;000;000;
26720;PMS1003;15950;51.112;6.966;2023-04-03T07:57:10;000;000;
26720;PMS1003;15950;51.112;6.966;2023-04-03T08:00:11;000;000;
26720;PMS1003;15950;51.112;6.966;2023-04-03T08:03:10;000;000;
26720;PMS1003;15950;51.112;6.966;2023-04-03T08:06:10;000;000;
26720;PMS1003;15950;51.112;6.966;2023-04-03T08:09:10;000;000;
26720;PMS1003;15950;51.112;6.966;2023-04-03T08:12:10;000;000;
26720;PMS1003;15950;51.112;6.966;2023-04-03T08:15:10;000;000;
26720;PMS1003;15950;51.112;6.966;2023-04-03T08:18:10;000;000;
26720;PMS1003;15950;51.112;6.966;2023-04-03T08:21:10;000;000;
26720;PMS1003;15950;51.112;6.966;2023-04-03T08:24:10;000;000;
26720;PMS1003;15950;51.112;6.966;2023-04-03T08:27:10;000;000;
26720;PMS1003;15950;51.112;6.966;2023-04-03T08:30:10;000;000;
26720;PMS1003;15950;51.112;6.966;2023-04-03T08:33:10;000;000;
26720;PMS1003;15950;51.112;6.966;2023-04-03T08:39:10;000;000;
26720;PMS1003;15950;51.112;6.966;2023-04-03T08:48:15;000;000;
26720;PMS1003;15950;51.112;6.966;2023-04-03T08:51:12;000;000;
26720;PMS1003;15950;51.112;6.966;2023-04-03T08:54:14;000;000;
26720;PMS1003;15950;51.112;6.966;2023-04-03T08:57:10;000;000;
26720;PMS1003;15950;51.112;6.966;2023-04-03T09:00:20;000;000;
26720;PMS1003;15950;51.112;6.966;2023-04-03T09:03:14;000;000;
26720;PMS1003;15950;51.112;6.966;2023-04-03T09:06:13;000;000;
26720;PMS1003;15950;51.112;6.966;2023-04-03T09:24:10;000;000;
26720;PMS1003;15950;51.112;6.966;2023-04-03T09:27:10;000;000;
26720;PMS1003;15950;51.112;6.966;2023-04-03T09:33:10;000;000;
26720;PMS1003;15950;51.112;6.966;2023-04-03T09:36:10;000;000;
26720;PMS1003;15950;51.112;6.966;2023-04-03T09:42:28;000;000;
26720;PMS1003;15950;51.112;6.966;2023-04-03T09:45:18;000;000;
26720;PMS1003;15950;51.112;6.966;2023-04-03T09:51:10;000;000;
26720;PMS1003;15950;51.112;6.966;2023-04-03T09:54:52;000;000;
26720;PMS1003;15950;51.112;6.966;2023-04-03T09:57:11;000;000;
26720;PMS1003;15950;51.112;6.966;2023-04-03T10:03:32;000;000;
26720;PMS1003;15950;51.112;6.966;2023-04-03T10:09:15;000;000;
26720;PMS1003;15950;51.112;6.966;2023-04-03T10:12:11;000;000;
26720;PMS1003;15950;51.112;6.966;2023-04-03T10:15:11;000;000;
26720;PMS1003;15950;51.112;6.966;2023-04-03T10:21:15;000;000;
26720;PMS1003;15950;51.112;6.966;2023-04-03T10:24:11;000;000;
26720;PMS1003;15950;51.112;6.966;2023-04-03T10:36:12;000;000;
26720;PMS1003;15950;51.112;6.966;2023-04-03T10:51:16;000;000;
26720;PMS1003;15950;51.112;6.966;2023-04-03T10:57:10;000;000;
26720;PMS1003;15950;51.112;6.966;2023-04-03T11:06:10;000;000;
26720;PMS1003;15950;51.112;6.966;2023-04-03T11:12:11;000;000;
26720;PMS1003;15950;51.112;6.966;2023-04-03T11:15:13;000;000;
26720;PMS1003;15950;51.112;6.966;2023-04-03T11:18:11;000;000;
26720;PMS1003;15950;51.112;6.966;2023-04-03T11:21:16;000;000;
26720;PMS1003;15950;51.112;6.966;2023-04-03T11:24:14;000;000;
26720;PMS1003;15950;51.112;6.966;2023-04-03T11:27:12;000;000;
26720;PMS1003;15950;51.112;6.966;2023-04-03T11:30:13;000;000;
26720;PMS1003;15950;51.112;6.966;2023-04-03T11:36:12;000;000;
26720;PMS1003;15950;51.112;6.966;2023-04-03T11:42:31;000;000;
26720;PMS1003;15950;51.112;6.966;2023-04-03T11:57:22;000;000;
26720;PMS1003;15950;51.112;6.966;2023-04-03T12:21:11;000;000;
26720;PMS1003;15950;51.112;6.966;2023-04-03T12:30:14;000;000;
26720;PMS1003;15950;51.112;6.966;2023-04-03T12:33:13;000;000;
26720;PMS1003;15950;51.112;6.966;2023-04-03T12:36:11;000;000;
26720;PMS1003;15950;51.112;6.966;2023-04-03T12:39:13;000;000;
26720;PMS1003;15950;51.112;6.966;2023-04-03T12:45:15;000;000;
26720;PMS1003;15950;51.112;6.966;2023-04-03T12:48:16;000;000;
26720;PMS1003;15950;51.112;6.966;2023-04-03T12:51:12;000;000;
26720;PMS1003;15950;51.112;6.966;2023-04-03T12:54:13;000;000;
26720;PMS1003;15950;51.112;6.966;2023-04-03T12:57:10;000;000;
26720;PMS1003;15950;51.112;6.966;2023-04-03T13:03:28;000;000;
26720;PMS1003;15950;51.112;6.966;2023-04-03T13:12:10;000;000;
26720;PMS1003;15950;51.112;6.966;2023-04-03T13:24:09;000;000;
26720;PMS1003;15950;51.112;6.966;2023-04-03T13:27:12;000;000;
26720;PMS1003;15950;51.112;6.966;2023-04-03T13:33:19;000;000;
26720;PMS1003;15950;51.112;6.966;2023-04-03T13:48:20;000;000;
26720;PMS1003;15950;51.112;6.966;2023-04-03T13:54:16;000;000;
26720;PMS1003;15950;51.112;6.966;2023-04-03T13:57:12;000;000;
26720;PMS1003;15950;51.112;6.966;2023-04-03T14:03:16;000;000;
26720;PMS1003;15950;51.112;6.966;2023-04-03T14:06:11;000;000;
26720;PMS1003;15950;51.112;6.966;2023-04-03T14:09:09;000;000;
26720;PMS1003;15950;51.112;6.966;2023-04-03T14:12:30;000;000;
26720;PMS1003;15950;51.112;6.966;2023-04-03T14:18:11;000;000;
26720;PMS1003;15950;51.112;6.966;2023-04-03T14:21:13;000;000;
26720;PMS1003;15950;51.112;6.966;2023-04-03T14:24:09;000;000;
26720;PMS1003;15950;51.112;6.966;2023-04-03T14:30:14;000;000;
26720;PMS1003;15950;51.112;6.966;2023-04-03T14:33:14;000;000;
26720;PMS1003;15950;51.112;6.966;2023-04-03T14:36:11;000;000;
26720;PMS1003;15950;51.112;6.966;2023-04-03T14:42:13;000;000;
26720;PMS1003;15950;51.112;6.966;2023-04-03T14:45:11;000;000;
26720;PMS1003;15950;51.112;6.966;2023-04-03T14:48:15;000;000;
26720;PMS1003;15950;51.112;6.966;2023-04-03T14:51:13;000;000;
26720;PMS1003;15950;51.112;6.966;2023-04-03T14:54:12;000;000;
26720;PMS1003;15950;51.112;6.966;2023-04-03T14:57:09;000;000;
26720;PMS1003;15950;51.112;6.966;2023-04-03T15:03:20;000;000;
26720;PMS1003;15950;51.112;6.966;2023-04-03T15:06:13;000;000;
26720;PMS1003;15950;51.112;6.966;2023-04-03T15:09:27;000;000;
26720;PMS1003;15950;51.112;6.966;2023-04-03T15:12:09;000;000;
26720;PMS1003;15950;51.112;6.966;2023-04-03T15:15:09;000;000;
26720;PMS1003;15950;51.112;6.966;2023-04-03T15:21:09;000;000;
26720;PMS1003;15950;51.112;6.966;2023-04-03T15:24:09;000;000;
26720;PMS1003;15950;51.112;6.966;2023-04-03T15:27:10;000;000;
26720;PMS1003;15950;51.112;6.966;2023-04-03T15:33:09;000;000;
26720;PMS1003;15950;51.112;6.966;2023-04-03T15:36:10;000;000;
26720;PMS1003;15950;51.112;6.966;2023-04-03T15:39:09;000;000;
26720;PMS1003;15950;51.112;6.966;2023-04-03T15:42:09;000;000;
26720;PMS1003;15950;51.112;6.966;2023-04-03T15:45:09;000;000;
26720;PMS1003;15950;51.112;6.966;2023-04-03T15:48:10;000;000;
26720;PMS1003;15950;51.112;6.966;2023-04-03T15:51:09;000;000;
26720;PMS1003;15950;51.112;6.966;2023-04-03T15:54:09;000;000;
26720;PMS1003;15950;51.112;6.966;2023-04-03T15:57:09;000;000;
26720;PMS1003;15950;51.112;6.966;2023-04-03T16:00:10;000;000;
26720;PMS1003;15950;51.112;6.966;2023-04-03T16:03:11;000;000;
26720;PMS1003;15950;51.112;6.966;2023-04-03T16:06:09;000;000;
26720;PMS1003;15950;51.112;6.966;2023-04-03T16:09:09;000;000;
26720;PMS1003;15950;51.112;6.966;2023-04-03T16:12:09;000;000;
26720;PMS1003;15950;51.112;6.966;2023-04-03T16:15:10;000;000;
26720;PMS1003;15950;51.112;6.966;2023-04-03T16:18:09;000;000;
26720;PMS1003;15950;51.112;6.966;2023-04-03T16:21:09;000;000;
26720;PMS1003;15950;51.112;6.966;2023-04-03T16:24:09;000;000;
26720;PMS1003;15950;51.112;6.966;2023-04-03T16:27:09;000;000;
26720;PMS1003;15950;51.112;6.966;2023-04-03T16:30:09;000;000;
26720;PMS1003;15950;51.112;6.966;2023-04-03T16:33:09;000;000;
26720;PMS1003;15950;51.112;6.966;2023-04-03T16:36:09;000;000;
26720;PMS1003;15950;51.112;6.966;2023-04-03T16:39:09;000;000;
26720;PMS1003;15950;51.112;6.966;2023-04-03T16:42:09;000;000;
26720;PMS1003;15950;51.112;6.966;2023-04-03T16:45:09;000;000;
26720;PMS1003;15950;51.112;6.966;2023-04-03T16:48:09;000;000;
26720;PMS1003;15950;51.112;6.966;2023-04-03T16:51:09;000;000;
26720;PMS1003;15950;51.112;6.966;2023-04-03T16:54:09;000;000;
26720;PMS1003;15950;51.112;6.966;2023-04-03T16:57:09;000;000;
26720;PMS1003;15950;51.112;6.966;2023-04-03T17:00:09;000;000;
26720;PMS1003;15950;51.112;6.966;2023-04-03T17:03:09;000;000;
26720;PMS1003;15950;51.112;6.966;2023-04-03T17:06:10;000;000;
26720;PMS1003;15950;51.112;6.966;2023-04-03T17:09:09;000;000;
26720;PMS1003;15950;51.112;6.966;2023-04-03T17:12:09;000;000;
26720;PMS1003;15950;51.112;6.966;2023-04-03T17:15:09;000;000;
26720;PMS1003;15950;51.112;6.966;2023-04-03T17:18:09;000;000;
26720;PMS1003;15950;51.112;6.966;2023-04-03T17:21:10;000;000;
26720;PMS1003;15950;51.112;6.966;2023-04-03T17:24:09;000;000;
26720;PMS1003;15950;51.112;6.966;2023-04-03T17:27:09;000;000;
26720;PMS1003;15950;51.112;6.966;2023-04-03T17:30:10;000;000;
26720;PMS1003;15950;51.112;6.966;2023-04-03T17:33:09;000;000;
26720;PMS1003;15950;51.112;6.966;2023-04-03T17:36:10;000;000;
26720;PMS1003;15950;51.112;6.966;2023-04-03T17:39:09;000;000;
26720;PMS1003;15950;51.112;6.966;2023-04-03T17:42:09;000;000;
26720;PMS1003;15950;51.112;6.966;2023-04-03T17:45:09;002;001;
26720;PMS1003;15950;51.112;6.966;2023-04-03T17:48:09;000;000;
26720;PMS1003;15950;51.112;6.966;2023-04-03T17:51:10;000;000;
26720;PMS1003;15950;51.112;6.966;2023-04-03T17:54:09;000;000;
26720;PMS1003;15950;51.112;6.966;2023-04-03T17:57:09;000;000;
26720;PMS1003;15950;51.112;6.966;2023-04-03T18:00:09;000;000;
26720;PMS1003;15950;51.112;6.966;2023-04-03T18:03:09;000;000;
26720;PMS1003;15950;51.112;6.966;2023-04-03T18:06:11;000;000;
26720;PMS1003;15950;51.112;6.966;2023-04-03T18:12:09;000;000;
26720;PMS1003;15950;51.112;6.966;2023-04-03T18:15:09;000;000;
26720;PMS1003;15950;51.112;6.966;2023-04-03T18:18:09;000;000;
26720;PMS1003;15950;51.112;6.966;2023-04-03T18:21:10;000;000;
26720;PMS1003;15950;51.112;6.966;2023-04-03T18:24:10;000;000;
26720;PMS1003;15950;51.112;6.966;2023-04-03T18:27:13;000;000;
26720;PMS1003;15950;51.112;6.966;2023-04-03T18:30:10;000;000;
26720;PMS1003;15950;51.112;6.966;2023-04-03T18:33:09;000;000;
26720;PMS1003;15950;51.112;6.966;2023-04-03T18:36:10;000;000;
26720;PMS1003;15950;51.112;6.966;2023-04-03T18:39:09;000;000;
26720;PMS1003;15950;51.112;6.966;2023-04-03T18:42:13;000;000;
26720;PMS1003;15950;51.112;6.966;2023-04-03T18:45:10;000;000;
26720;PMS1003;15950;51.112;6.966;2023-04-03T18:48:09;000;000;
26720;PMS1003;15950;51.112;6.966;2023-04-03T18:51:09;000;000;
26720;PMS1003;15950;51.112;6.966;2023-04-03T18:54:09;000;000;
26720;PMS1003;15950;51.112;6.966;2023-04-03T18:57:09;000;000;
26720;PMS1003;15950;51.112;6.966;2023-04-03T19:00:09;000;000;
26720;PMS1003;15950;51.112;6.966;2023-04-03T19:03:09;000;000;
26720;PMS1003;15950;51.112;6.966;2023-04-03T19:06:09;000;000;
26720;PMS1003;15950;51.112;6.966;2023-04-03T19:09:09;000;000;
26720;PMS1003;15950;51.112;6.966;2023-04-03T19:12:09;000;000;
26720;PMS1003;15950;51.112;6.966;2023-04-03T19:15:10;000;000;
26720;PMS1003;15950;51.112;6.966;2023-04-03T19:18:09;000;000;
26720;PMS1003;15950;51.112;6.966;2023-04-03T19:21:09;002;001;
26720;PMS1003;15950;51.112;6.966;2023-04-03T19:24:10;000;000;
26720;PMS1003;15950;51.112;6.966;2023-04-03T19:27:09;000;000;
26720;PMS1003;15950;51.112;6.966;2023-04-03T19:30:10;000;000;
26720;PMS1003;15950;51.112;6.966;2023-04-03T19:33:09;000;000;
26720;PMS1003;15950;51.112;6.966;2023-04-03T19:36:10;000;000;
26720;PMS1003;15950;51.112;6.966;2023-04-03T19:39:09;000;000;
26720;PMS1003;15950;51.112;6.966;2023-04-03T19:42:09;000;000;
26720;PMS1003;15950;51.112;6.966;2023-04-03T19:45:10;000;000;
26720;PMS1003;15950;51.112;6.966;2023-04-03T19:48:09;000;000;
26720;PMS1003;15950;51.112;6.966;2023-04-03T19:51:09;000;000;
26720;PMS1003;15950;51.112;6.966;2023-04-03T19:54:09;000;000;
26720;PMS1003;15950;51.112;6.966;2023-04-03T19:57:09;000;000;
26720;PMS1003;15950;51.112;6.966;2023-04-03T20:00:09;000;000;
26720;PMS1003;15950;51.112;6.966;2023-04-03T20:03:09;000;000;
26720;PMS1003;15950;51.112;6.966;2023-04-03T20:06:09;000;000;
26720;PMS1003;15950;51.112;6.966;2023-04-03T20:09:09;000;000;
26720;PMS1003;15950;51.112;6.966;2023-04-03T20:12:09;001;001;
26720;PMS1003;15950;51.112;6.966;2023-04-03T20:15:09;000;000;
26720;PMS1003;15950;51.112;6.966;2023-04-03T20:18:10;000;000;
26720;PMS1003;15950;51.112;6.966;2023-04-03T20:21:10;000;000;
26720;PMS1003;15950;51.112;6.966;2023-04-03T20:24:09;000;000;
26720;PMS1003;15950;51.112;6.966;2023-04-03T20:27:09;000;000;
26720;PMS1003;15950;51.112;6.966;2023-04-03T20:30:10;000;000;
26720;PMS1003;15950;51.112;6.966;2023-04-03T20:33:09;000;000;
26720;PMS1003;15950;51.112;6.966;2023-04-03T20:36:09;000;000;
26720;PMS1003;15950;51.112;6.966;2023-04-03T20:39:09;000;000;
26720;PMS1003;15950;51.112;6.966;2023-04-03T20:42:09;000;000;
26720;PMS1003;15950;51.112;6.966;2023-04-03T20:45:09;000;000;
26720;PMS1003;15950;51.112;6.966;2023-04-03T20:48:09;000;000;
26720;PMS1003;15950;51.112;6.966;2023-04-03T20:51:10;000;000;
26720;PMS1003;15950;51.112;6.966;2023-04-03T20:54:09;000;000;
26720;PMS1003;15950;51.112;6.966;2023-04-03T20:57:09;000;000;
26720;PMS1003;15950;51.112;6.966;2023-04-03T21:00:10;000;000;
26720;PMS1003;15950;51.112;6.966;2023-04-03T21:03:09;000;000;
26720;PMS1003;15950;51.112;6.966;2023-04-03T21:24:10;000;000;
26720;PMS1003;15950;51.112;6.966;2023-04-03T21:27:10;000;000;
26720;PMS1003;15950;51.112;6.966;2023-04-03T21:30:10;000;000;
26720;PMS1003;15950;51.112;6.966;2023-04-03T21:33:09;000;000;
26720;PMS1003;15950;51.112;6.966;2023-04-03T21:36:09;000;000;
26720;PMS1003;15950;51.112;6.966;2023-04-03T21:39:09;000;000;
26720;PMS1003;15950;51.112;6.966;2023-04-03T21:42:09;000;000;
26720;PMS1003;15950;51.112;6.966;2023-04-03T21:45:09;002;001;
26720;PMS1003;15950;51.112;6.966;2023-04-03T21:48:09;000;000;
26720;PMS1003;15950;51.112;6.966;2023-04-03T21:51:09;000;000;
26720;PMS1003;15950;51.112;6.966;2023-04-03T21:54:09;000;000;
26720;PMS1003;15950;51.112;6.966;2023-04-03T21:57:09;000;000;
26720;PMS1003;15950;51.112;6.966;2023-04-03T22:00:09;002;001;
26720;PMS1003;15950;51.112;6.966;2023-04-03T22:03:09;000;000;
26720;PMS1003;15950;51.112;6.966;2023-04-03T22:06:10;002;001;
26720;PMS1003;15950;51.112;6.966;2023-04-03T22:09:09;000;000;
26720;PMS1003;15950;51.112;6.966;2023-04-03T22:12:09;000;000;
26720;PMS1003;15950;51.112;6.966;2023-04-03T22:15:09;002;001;
26720;PMS1003;15950;51.112;6.966;2023-04-03T22:18:09;001;001;
26720;PMS1003;15950;51.112;6.966;2023-04-03T22:21:09;005;004;
26720;PMS1003;15950;51.112;6.966;2023-04-03T22:24:09;002;001;
26720;PMS1003;15950;51.112;6.966;2023-04-03T22:27:09;004;003;
26720;PMS1003;15950;51.112;6.966;2023-04-03T22:30:09;001;001;
26720;PMS1003;15950;51.112;6.966;2023-04-03T22:33:09;003;002;
26720;PMS1003;15950;51.112;6.966;2023-04-03T22:36:10;000;000;
26720;PMS1003;15950;51.112;6.966;2023-04-03T22:39:09;003;002;
26720;PMS1003;15950;51.112;6.966;2023-04-03T22:42:09;004;003;
26720;PMS1003;15950;51.112;6.966;2023-04-03T22:45:09;000;000;
26720;PMS1003;15950;51.112;6.966;2023-04-03T22:48:09;000;000;
26720;PMS1003;15950;51.112;6.966;2023-04-03T22:51:09;002;001;